Time;durP1;ratioP1;P1;durP2;ratioP2;P2;SDS_P1;SDS_P2;PMS_P1;PMS_P2;Temp;Humidity;BMP_temperature;BMP_pressure;BME280_temperature;BME280_humidity;BME280_pressure;Samples;Min_cycle;Max_cycle;Signal;HPM_P1;HPM_P2
2023/12/16 00:00:51;;;;;;;2.85;1.80;;;;;;;4.34;73.21;95453.56;4177341;28;20492;-68
2023/12/16 00:02:53;;;;;;;2.78;1.70;;;;;;;4.37;72.90;95445.63;4172846;28;20120;-68
2023/12/16 00:04:55;;;;;;;2.30;1.50;;;;;;;4.44;72.91;95452.03;4175421;28;20136;-68
2023/12/16 00:06:56;;;;;;;2.85;1.67;;;;;;;4.51;72.94;95455.03;4173594;28;20376;-69
2023/12/16 00:08:58;;;;;;;1.77;1.20;;;;;;;4.50;72.48;95456.00;4168055;28;20052;-70
2023/12/16 00:11:00;;;;;;;1.92;1.42;;;;;;;4.49;72.49;95460.34;4175580;28;20480;-67
2023/12/16 00:13:02;;;;;;;2.80;1.27;;;;;;;4.48;72.47;95458.69;4178087;28;20044;-69
2023/12/16 00:15:08;;;;;;;1.90;1.30;;;;;;;4.48;72.32;95458.69;4176515;28;20486;-69
2023/12/16 00:17:10;;;;;;;2.20;1.48;;;;;;;4.50;72.41;95468.97;4167062;28;20077;-68
2023/12/16 00:19:12;;;;;;;2.08;1.23;;;;;;;4.42;72.10;95471.25;4175290;28;20051;-68
2023/12/16 00:21:14;;;;;;;2.38;1.45;;;;;;;4.25;72.45;95470.59;4177906;28;20060;-69
2023/12/16 00:23:16;;;;;;;1.80;1.00;;;;;;;4.29;73.23;95471.22;4175744;28;20166;-67
2023/12/16 00:25:17;;;;;;;2.15;1.33;;;;;;;4.34;72.49;95476.94;4176477;28;20059;-67
2023/12/16 00:27:19;;;;;;;1.75;1.20;;;;;;;4.25;72.13;95480.13;4169800;28;20127;-68
2023/12/16 00:29:21;;;;;;;1.85;1.23;;;;;;;4.22;72.78;95483.78;4175672;28;20103;-68
2023/12/16 00:31:23;;;;;;;2.40;1.35;;;;;;;4.22;72.70;95482.94;4174912;28;20103;-67
2023/12/16 00:33:25;;;;;;;4.82;1.40;;;;;;;4.28;72.49;95485.97;4172029;28;20088;-69
2023/12/16 00:35:27;;;;;;;1.90;1.20;;;;;;;4.21;72.49;95489.06;4176031;28;20040;-69
2023/12/16 00:37:29;;;;;;;2.60;1.10;;;;;;;4.20;73.17;95493.41;4171717;28;20058;-70
2023/12/16 00:39:32;;;;;;;1.60;0.90;;;;;;;4.20;73.29;95497.78;4164876;28;20081;-67
2023/12/16 00:41:34;;;;;;;1.27;0.90;;;;;;;4.19;72.54;95483.94;4167970;28;20072;-67
2023/12/16 00:43:36;;;;;;;1.65;1.15;;;;;;;4.14;72.07;95495.59;4167624;28;20052;-68
2023/12/16 00:45:37;;;;;;;3.05;1.10;;;;;;;4.06;72.39;95502.06;4176240;28;20302;-68
2023/12/16 00:47:39;;;;;;;2.25;1.20;;;;;;;4.01;73.40;95505.91;4175787;28;20128;-67
2023/12/16 00:49:42;;;;;;;1.80;1.15;;;;;;;4.08;73.32;95513.19;4176904;28;20122;-69
2023/12/16 00:51:44;;;;;;;1.83;1.00;;;;;;;4.15;73.50;95510.19;4167738;28;20135;-67
2023/12/16 00:53:46;;;;;;;1.50;1.00;;;;;;;4.11;73.07;95507.00;4178411;28;20057;-68
2023/12/16 00:55:48;;;;;;;2.10;1.20;;;;;;;4.14;73.33;95514.56;4175533;28;20200;-69
2023/12/16 00:57:50;;;;;;;1.65;1.08;;;;;;;4.14;72.71;95511.13;4175771;28;20053;-68
2023/12/16 00:59:52;;;;;;;2.08;1.10;;;;;;;4.07;72.73;95508.94;4163479;28;20093;-68
2023/12/16 01:01:55;;;;;;;2.67;1.30;;;;;;;3.98;72.93;95517.31;4176342;28;20085;-68
2023/12/16 01:03:57;;;;;;;1.50;0.97;;;;;;;3.96;73.21;95516.59;4174729;28;20044;-68
2023/12/16 01:05:59;;;;;;;1.50;1.00;;;;;;;3.99;72.91;95523.34;4175636;28;20516;-67
2023/12/16 01:08:01;;;;;;;2.75;1.00;;;;;;;3.92;73.30;95528.09;4175728;28;20144;-69
2023/12/16 01:10:03;;;;;;;1.67;1.15;;;;;;;3.95;73.26;95522.69;4168693;28;20509;-69
2023/12/16 01:12:06;;;;;;;3.95;1.00;;;;;;;3.84;73.14;95532.91;4169064;28;20732;-68
2023/12/16 01:14:11;;;;;;;1.70;1.08;;;;;;;3.83;73.69;95529.50;4175707;28;20048;-68
2023/12/16 01:16:13;;;;;;;1.85;1.10;;;;;;;3.82;74.31;95524.41;4161664;28;20076;-67
2023/12/16 01:18:16;;;;;;;1.77;1.17;;;;;;;3.93;73.64;95531.50;4165900;28;20055;-69
2023/12/16 01:20:18;;;;;;;2.60;1.00;;;;;;;3.96;73.58;95532.16;4175763;28;20125;-67
2023/12/16 01:22:20;;;;;;;1.73;1.00;;;;;;;3.96;73.30;95521.78;4176713;28;20688;-67
2023/12/16 01:24:22;;;;;;;2.00;1.10;;;;;;;3.94;73.30;95522.81;4176127;28;20061;-68
2023/12/16 01:26:24;;;;;;;1.52;1.00;;;;;;;3.86;73.13;95531.06;4172023;28;20094;-68
2023/12/16 01:28:25;;;;;;;2.78;1.05;;;;;;;3.84;73.41;95532.91;4176892;28;20569;-69
2023/12/16 01:30:27;;;;;;;1.40;1.00;;;;;;;3.88;73.29;95531.78;4175711;28;20091;-67
2023/12/16 01:32:29;;;;;;;1.63;1.10;;;;;;;3.95;73.43;95529.63;4177280;28;20049;-66
2023/12/16 01:34:31;;;;;;;1.45;1.00;;;;;;;3.89;73.43;95530.84;4169919;28;20152;-66
2023/12/16 01:36:33;;;;;;;1.55;1.05;;;;;;;3.89;73.26;95525.66;4162222;28;20061;-67
2023/12/16 01:38:35;;;;;;;2.55;1.05;;;;;;;3.96;73.47;95533.88;4174030;28;20384;-67
2023/12/16 01:40:37;;;;;;;1.60;1.10;;;;;;;3.94;73.64;95539.19;4176144;28;20059;-68
2023/12/16 01:42:39;;;;;;;1.58;0.82;;;;;;;3.98;73.22;95539.81;4170584;28;20058;-68
2023/12/16 01:44:41;;;;;;;1.60;1.00;;;;;;;3.95;73.87;95538.25;4172549;28;20169;-66
2023/12/16 01:46:43;;;;;;;1.80;1.08;;;;;;;4.06;73.66;95550.53;4156747;28;20056;-67
2023/12/16 01:48:46;;;;;;;1.80;1.13;;;;;;;4.07;73.38;95539.22;4156168;28;20133;-69
2023/12/16 01:50:49;;;;;;;1.60;1.00;;;;;;;4.10;72.98;95542.44;4171926;28;20045;-69
2023/12/16 01:52:51;;;;;;;1.92;1.00;;;;;;;4.07;73.26;95545.25;4176203;28;20053;-69
2023/12/16 01:54:53;;;;;;;1.48;0.93;;;;;;;4.03;73.02;95548.97;4174520;28;20076;-68
2023/12/16 01:56:59;;;;;;;3.08;1.02;;;;;;;3.87;73.30;95549.13;4170965;28;20054;-66
2023/12/16 01:59:01;;;;;;;1.58;0.90;;;;;;;3.80;73.63;95534.88;4171321;28;20463;-67
2023/12/16 02:01:03;;;;;;;1.75;1.10;;;;;;;3.82;73.57;95542.56;4175616;28;20053;-69
2023/12/16 02:03:05;;;;;;;1.45;0.88;;;;;;;3.91;73.91;95554.91;4177218;28;20052;-68
2023/12/16 02:05:07;;;;;;;1.40;0.90;;;;;;;3.90;73.36;95558.44;4174922;28;20416;-68
2023/12/16 02:07:09;;;;;;;2.22;1.13;;;;;;;3.92;73.44;95558.38;4167922;28;20056;-68
2023/12/16 02:09:16;;;;;;;0.93;0.75;;;;;;;3.95;73.19;95555.56;4172488;28;20081;-69
2023/12/16 02:11:18;;;;;;;1.35;0.98;;;;;;;3.94;73.12;95557.34;4170627;28;20106;-67
2023/12/16 02:13:22;;;;;;;1.83;1.00;;;;;;;3.90;73.48;95556.69;4170554;28;20080;-68
2023/12/16 02:15:25;;;;;;;1.23;0.90;;;;;;;3.99;73.36;95565.63;4168086;28;20125;-70
2023/12/16 02:17:27;;;;;;;1.30;0.80;;;;;;;3.99;73.31;95560.44;4173012;28;20084;-69
2023/12/16 02:19:29;;;;;;;2.03;1.00;;;;;;;4.01;73.36;95561.19;4170388;28;20041;-69
2023/12/16 02:21:31;;;;;;;1.42;0.88;;;;;;;4.08;73.56;95572.81;4163822;28;20050;-69
2023/12/16 02:23:33;;;;;;;1.15;0.80;;;;;;;3.73;72.49;95572.47;4175314;28;20055;-68
2023/12/16 02:25:35;;;;;;;1.08;0.80;;;;;;;3.68;73.67;95579.72;4163000;28;20059;-69
2023/12/16 02:27:37;;;;;;;1.42;0.93;;;;;;;3.66;74.53;95576.38;4174480;28;20103;-66
2023/12/16 02:29:40;;;;;;;1.23;0.80;;;;;;;3.68;74.16;95577.13;4170457;28;20095;-67
2023/12/16 02:31:42;;;;;;;1.35;0.77;;;;;;;3.74;73.77;95583.66;4174251;28;20053;-68
2023/12/16 02:33:45;;;;;;;1.20;0.80;;;;;;;3.81;73.82;95590.16;4172467;28;20448;-69
2023/12/16 02:35:47;;;;;;;1.63;0.90;;;;;;;3.83;73.62;95589.13;4171294;28;20389;-67
2023/12/16 02:37:49;;;;;;;1.50;0.90;;;;;;;3.86;73.29;95594.09;4177585;28;20049;-68
2023/12/16 02:39:51;;;;;;;1.25;0.93;;;;;;;3.82;73.02;95587.44;4177800;28;20088;-68
2023/12/16 02:41:53;;;;;;;1.35;0.75;;;;;;;3.77;73.14;95593.84;4180894;28;20073;-69
2023/12/16 02:43:55;;;;;;;1.38;0.90;;;;;;;3.56;73.60;95590.81;4165777;28;20489;-67
2023/12/16 02:45:56;;;;;;;1.20;0.80;;;;;;;3.46;73.84;95594.00;4164922;28;20448;-68
2023/12/16 02:47:58;;;;;;;1.38;0.90;;;;;;;3.25;74.43;95597.88;4172213;28;20516;-67
2023/12/16 02:50:01;;;;;;;0.85;0.60;;;;;;;3.15;74.69;95600.19;4164660;28;20110;-69
2023/12/16 02:52:04;;;;;;;1.70;0.90;;;;;;;2.82;75.54;95605.59;4173263;28;20053;-66
2023/12/16 02:54:06;;;;;;;1.33;0.90;;;;;;;2.75;76.15;95605.09;4166005;28;20106;-67
2023/12/16 02:56:08;;;;;;;1.77;1.23;;;;;;;2.82;76.98;95608.19;4178071;28;20975;-67
2023/12/16 02:58:10;;;;;;;1.35;0.82;;;;;;;2.96;77.13;95609.97;4178132;28;20060;-69
2023/12/16 03:00:12;;;;;;;1.05;0.80;;;;;;;3.17;76.69;95615.63;4163932;28;20067;-68
2023/12/16 03:02:14;;;;;;;1.15;0.77;;;;;;;3.30;75.32;95610.56;4173051;28;20087;-68
2023/12/16 03:04:16;;;;;;;1.15;0.80;;;;;;;3.39;75.05;95615.16;4177618;28;20049;-69
2023/12/16 03:06:18;;;;;;;1.70;0.93;;;;;;;3.47;74.77;95620.72;4175669;28;20053;-67
2023/12/16 03:08:20;;;;;;;1.40;1.00;;;;;;;3.50;74.59;95615.34;4178540;28;20566;-69
2023/12/16 03:10:22;;;;;;;1.30;0.90;;;;;;;3.52;74.33;95618.66;4176263;28;20060;-67
2023/12/16 03:12:24;;;;;;;1.30;0.90;;;;;;;3.60;74.11;95615.63;4174343;28;20394;-68
2023/12/16 03:14:27;;;;;;;1.80;0.80;;;;;;;3.64;73.63;95612.75;4167897;28;20135;-66
2023/12/16 03:16:29;;;;;;;1.30;0.90;;;;;;;3.68;73.43;95621.16;4174056;28;20060;-67
2023/12/16 03:18:31;;;;;;;1.23;0.73;;;;;;;3.62;73.58;95614.59;4165335;28;20053;-70
2023/12/16 03:20:33;;;;;;;1.27;0.80;;;;;;;3.71;73.60;95620.97;4164718;28;20405;-67
2023/12/16 03:22:35;;;;;;;1.08;0.82;;;;;;;3.69;73.18;95615.88;4177606;28;20057;-68
2023/12/16 03:24:37;;;;;;;1.60;1.02;;;;;;;3.67;72.93;95625.50;4168994;28;20140;-68
2023/12/16 03:26:39;;;;;;;1.95;1.00;;;;;;;3.74;73.50;95630.31;4174030;28;20048;-68
2023/12/16 03:28:41;;;;;;;1.30;0.90;;;;;;;3.77;73.04;95635.31;4180108;28;20056;-69
2023/12/16 03:30:43;;;;;;;1.42;0.90;;;;;;;3.80;72.92;95645.50;4177392;28;20382;-66
2023/12/16 03:32:45;;;;;;;1.30;0.85;;;;;;;3.82;72.96;95641.88;4177715;28;20045;-68
2023/12/16 03:34:47;;;;;;;1.42;0.90;;;;;;;3.88;72.64;95643.25;4173575;28;20057;-68
2023/12/16 03:36:49;;;;;;;2.22;1.17;;;;;;;3.84;72.39;95639.19;4177708;28;20495;-70
2023/12/16 03:38:52;;;;;;;1.80;1.00;;;;;;;3.92;72.49;95643.91;4176967;28;20411;-67
2023/12/16 03:40:54;;;;;;;1.45;0.90;;;;;;;3.93;72.37;95645.56;4179327;28;20044;-69
2023/12/16 03:42:56;;;;;;;1.88;1.20;;;;;;;3.94;72.02;95650.66;4181537;28;20422;-68
2023/12/16 03:44:58;;;;;;;1.83;1.00;;;;;;;3.92;72.34;95652.50;4176870;28;20127;-70
2023/12/16 03:47:00;;;;;;;2.40;0.80;;;;;;;3.92;72.10;95657.69;4170104;28;20041;-69
2023/12/16 03:49:02;;;;;;;1.77;0.90;;;;;;;3.92;71.98;95657.69;4169137;28;20041;-69
2023/12/16 03:51:04;;;;;;;1.73;1.20;;;;;;;3.88;72.74;95658.81;4171878;28;20408;-70
2023/12/16 03:53:06;;;;;;;1.70;0.98;;;;;;;3.87;72.35;95658.00;4172871;28;20048;-69
2023/12/16 03:55:08;;;;;;;1.83;1.00;;;;;;;3.87;71.99;95659.72;4175755;28;20120;-66
2023/12/16 03:57:10;;;;;;;2.45;0.98;;;;;;;3.95;72.48;95667.88;4177590;28;20091;-68
2023/12/16 03:59:12;;;;;;;2.47;1.10;;;;;;;3.99;72.10;95676.28;4170816;28;20433;-65
2023/12/16 04:01:14;;;;;;;2.10;1.10;;;;;;;4.07;72.49;95668.88;4179026;28;20136;-68
2023/12/16 04:03:16;;;;;;;1.55;0.90;;;;;;;4.08;72.46;95678.31;4167719;28;20128;-67
2023/12/16 04:05:18;;;;;;;1.80;1.10;;;;;;;4.03;71.84;95677.78;4169932;28;20060;-68
2023/12/16 04:07:20;;;;;;;2.25;1.23;;;;;;;4.03;72.13;95678.59;4163853;28;20053;-70
2023/12/16 04:09:22;;;;;;;1.90;1.25;;;;;;;4.10;72.26;95695.44;4169387;28;20058;-68
2023/12/16 04:11:23;;;;;;;1.33;0.82;;;;;;;4.03;71.83;95691.56;4177768;28;20127;-67
2023/12/16 04:13:25;;;;;;;1.40;1.02;;;;;;;4.05;71.76;95689.72;4169010;28;20080;-67
2023/12/16 04:15:27;;;;;;;1.83;1.08;;;;;;;3.92;71.50;95694.00;4171398;28;20124;-70
2023/12/16 04:17:29;;;;;;;2.00;1.20;;;;;;;3.83;72.08;95697.97;4171826;28;20104;-68
2023/12/16 04:19:32;;;;;;;1.92;0.90;;;;;;;3.79;71.99;95685.31;4178991;28;20132;-69
2023/12/16 04:21:33;;;;;;;1.27;0.85;;;;;;;3.70;72.31;95684.09;4177932;28;20056;-68
2023/12/16 04:23:36;;;;;;;2.10;1.52;;;;;;;3.68;72.45;95683.38;4171412;28;20049;-70
2023/12/16 04:25:37;;;;;;;2.70;1.20;;;;;;;3.68;72.38;95697.16;4169118;28;21140;-69
2023/12/16 04:27:39;;;;;;;3.90;0.93;;;;;;;3.67;72.40;95698.06;4176047;28;20102;-66
2023/12/16 04:29:42;;;;;;;2.03;1.10;;;;;;;3.66;72.70;95695.59;4178019;28;20498;-69
2023/12/16 04:31:44;;;;;;;1.80;1.08;;;;;;;3.77;72.37;95705.28;4177471;28;20067;-67
2023/12/16 04:33:48;;;;;;;1.20;0.80;;;;;;;3.75;71.71;95701.97;4166713;28;20576;-69
2023/12/16 04:35:50;;;;;;;1.23;0.85;;;;;;;3.76;71.92;95688.91;4176897;28;20106;-69
2023/12/16 04:37:52;;;;;;;1.55;1.02;;;;;;;3.80;71.71;95705.94;4188099;28;20049;-68
2023/12/16 04:39:53;;;;;;;2.03;0.90;;;;;;;3.76;71.05;95690.66;4170092;28;20437;-69
2023/12/16 04:41:55;;;;;;;3.40;0.80;;;;;;;3.66;69.78;95699.00;4167798;28;20456;-69
2023/12/16 04:43:57;;;;;;;1.60;0.80;;;;;;;3.64;70.88;95692.25;4164715;28;20049;-69
2023/12/16 04:46:00;;;;;;;1.65;1.00;;;;;;;3.65;70.99;95704.25;4169369;28;20072;-68
2023/12/16 04:48:02;;;;;;;1.53;0.80;;;;;;;3.56;70.25;95707.41;4178910;28;20052;-66
2023/12/16 04:50:05;;;;;;;1.70;0.88;;;;;;;3.63;71.04;95719.06;4166701;28;20076;-69
2023/12/16 04:52:07;;;;;;;1.52;0.90;;;;;;;3.62;70.59;95732.97;4172312;28;20049;-68
2023/12/16 04:54:09;;;;;;;1.42;0.90;;;;;;;3.61;70.90;95724.34;4175568;28;20073;-67
2023/12/16 04:56:11;;;;;;;1.27;0.85;;;;;;;3.65;70.27;95732.78;4177555;28;20206;-68
2023/12/16 04:58:13;;;;;;;1.52;0.98;;;;;;;3.57;70.08;95724.59;4177525;28;20361;-67
2023/12/16 05:00:15;;;;;;;1.38;0.80;;;;;;;3.55;70.49;95718.69;4174398;28;20080;-68
2023/12/16 05:02:17;;;;;;;1.58;0.90;;;;;;;3.57;70.33;95716.84;4167528;28;20057;-68
2023/12/16 05:04:19;;;;;;;1.80;1.00;;;;;;;3.57;70.26;95717.69;4174940;28;20053;-69
2023/12/16 05:06:21;;;;;;;0.90;0.68;;;;;;;3.45;68.60;95719.25;4168802;28;20096;-69
2023/12/16 05:08:23;;;;;;;1.50;0.80;;;;;;;3.41;69.52;95724.69;4165993;28;20473;-69
2023/12/16 05:10:25;;;;;;;1.25;0.80;;;;;;;3.39;70.00;95723.94;4174276;28;20088;-69
2023/12/16 05:12:27;;;;;;;2.13;1.00;;;;;;;3.32;69.36;95726.06;4171807;28;20076;-68
2023/12/16 05:14:39;;;;;;;1.92;0.95;;;;;;;3.30;69.96;95746.03;4166890;28;20052;-68
2023/12/16 05:16:41;;;;;;;1.15;0.70;;;;;;;3.17;69.54;95743.31;4172776;28;20498;-67
2023/12/16 05:18:43;;;;;;;1.27;0.90;;;;;;;3.11;70.13;95741.09;4174663;28;20048;-69
2023/12/16 05:20:45;;;;;;;1.27;0.70;;;;;;;3.15;70.88;95747.75;4171853;28;20053;-69
2023/12/16 05:22:47;;;;;;;3.28;0.88;;;;;;;3.16;71.62;95759.81;4172833;28;20052;-70
2023/12/16 05:24:50;;;;;;;1.75;1.00;;;;;;;3.24;71.92;95751.56;4170452;28;20055;-70
2023/12/16 05:26:52;;;;;;;1.80;1.30;;;;;;;3.33;72.06;95755.38;4170312;28;20056;-68
2023/12/16 05:28:54;;;;;;;1.90;1.20;;;;;;;3.39;71.86;95765.41;4174601;28;20049;-69
2023/12/16 05:30:56;;;;;;;2.85;1.20;;;;;;;3.41;71.53;95758.38;4170415;28;20042;-70
2023/12/16 05:32:58;;;;;;;2.33;1.25;;;;;;;3.31;71.55;95760.66;4172785;28;20059;-71
2023/12/16 05:34:59;;;;;;;2.33;1.17;;;;;;;3.33;71.84;95776.09;4175567;28;20045;-68
2023/12/16 05:37:01;;;;;;;2.85;1.20;;;;;;;3.36;71.96;95774.19;4172493;28;20045;-70
2023/12/16 05:39:03;;;;;;;2.05;1.20;;;;;;;3.42;71.31;95785.94;4170079;28;20516;-69
2023/12/16 05:41:06;;;;;;;1.83;1.08;;;;;;;3.24;71.56;95783.47;4175847;28;20544;-69
2023/12/16 05:43:08;;;;;;;4.72;1.50;;;;;;;3.20;71.79;95781.16;4175407;28;20057;-69
2023/12/16 05:45:10;;;;;;;3.42;1.77;;;;;;;3.22;71.82;95781.91;4175309;28;20167;-68
2023/12/16 05:47:12;;;;;;;2.70;1.60;;;;;;;3.21;72.20;95772.47;4176455;28;20128;-69
2023/12/16 05:49:13;;;;;;;2.55;1.20;;;;;;;2.92;71.62;95776.72;4177437;28;20462;-69
2023/12/16 05:51:15;;;;;;;2.33;1.40;;;;;;;2.70;72.78;95769.31;4176234;28;20123;-69
2023/12/16 05:53:17;;;;;;;2.10;1.40;;;;;;;2.47;73.82;95776.56;4176934;28;20110;-69
2023/12/16 05:55:19;;;;;;;2.05;1.10;;;;;;;2.42;74.65;95786.34;4166861;28;20129;-70
2023/12/16 05:57:21;;;;;;;2.90;1.20;;;;;;;2.57;74.32;95789.84;4176108;28;20095;-69
2023/12/16 05:59:24;;;;;;;3.20;1.10;;;;;;;2.63;73.66;95774.81;4177491;28;20062;-69
2023/12/16 06:01:26;;;;;;;3.33;1.23;;;;;;;2.24;73.79;95765.72;4177885;28;20068;-68
2023/12/16 06:03:28;;;;;;;1.80;1.10;;;;;;;2.20;74.80;95771.97;4160599;28;20196;-69
2023/12/16 06:05:30;;;;;;;3.10;1.20;;;;;;;2.22;75.25;95777.91;4175479;28;20392;-69
2023/12/16 06:07:32;;;;;;;2.40;1.30;;;;;;;2.36;75.25;95803.00;4173514;28;20045;-70
2023/12/16 06:09:35;;;;;;;3.78;1.25;;;;;;;2.46;74.97;95790.44;4174499;28;20136;-69
2023/12/16 06:11:37;;;;;;;2.72;1.33;;;;;;;2.35;74.29;95795.34;4176594;28;20512;-71
2023/12/16 06:13:39;;;;;;;2.65;1.48;;;;;;;2.43;75.12;95788.84;4170110;28;20110;-70
2023/12/16 06:15:41;;;;;;;2.35;1.20;;;;;;;2.59;75.35;95800.94;4177428;28;20055;-66
2023/12/16 06:17:43;;;;;;;2.83;1.55;;;;;;;2.70;74.47;95801.19;4176655;28;20487;-69
2023/12/16 06:19:46;;;;;;;2.33;1.33;;;;;;;2.75;74.03;95800.94;4181062;28;20099;-70
2023/12/16 06:21:48;;;;;;;2.85;1.65;;;;;;;2.86;74.28;95816.69;4179443;28;20099;-69
2023/12/16 06:23:50;;;;;;;2.05;1.40;;;;;;;3.00;74.79;95814.19;4176843;28;20204;-70
2023/12/16 06:25:52;;;;;;;4.05;1.60;;;;;;;2.87;73.68;95820.97;4174400;28;20048;-70
2023/12/16 06:27:54;;;;;;;2.45;1.58;;;;;;;2.70;74.80;95823.66;4180003;28;20053;-69
2023/12/16 06:29:56;;;;;;;5.03;1.55;;;;;;;2.72;75.07;95825.22;4180569;28;20064;-69
2023/12/16 06:31:58;;;;;;;2.70;1.45;;;;;;;2.58;75.17;95826.00;4174753;28;20049;-70
2023/12/16 06:34:00;;;;;;;3.08;1.83;;;;;;;2.57;74.91;95829.47;4179930;28;20056;-70
2023/12/16 06:36:02;;;;;;;4.00;1.58;;;;;;;2.61;75.06;95840.50;4177560;28;20045;-68
2023/12/16 06:38:04;;;;;;;2.45;1.17;;;;;;;2.44;74.06;95847.41;4176879;28;20080;-70
2023/12/16 06:40:07;;;;;;;2.20;1.50;;;;;;;2.55;74.99;95846.00;4170021;28;20045;-70
2023/12/16 06:42:09;;;;;;;3.13;1.80;;;;;;;2.68;75.16;95847.00;4177087;28;20045;-70
2023/12/16 06:44:11;;;;;;;2.63;1.63;;;;;;;2.81;75.37;95852.34;4174475;28;20473;-70
2023/12/16 06:46:15;;;;;;;2.75;1.75;;;;;;;2.91;74.30;95850.94;4176921;28;20049;-70
2023/12/16 06:48:17;;;;;;;3.03;1.55;;;;;;;2.93;73.77;95853.44;4181080;28;20057;-69
2023/12/16 06:50:19;;;;;;;2.38;1.48;;;;;;;2.93;73.77;95854.28;4176613;28;20484;-69
2023/12/16 06:52:22;;;;;;;1.95;1.30;;;;;;;2.95;73.60;95865.38;4177802;28;20048;-70
2023/12/16 06:54:24;;;;;;;3.60;1.67;;;;;;;3.03;73.58;95868.41;4177074;28;20057;-70
2023/12/16 06:56:25;;;;;;;2.35;1.38;;;;;;;3.13;73.37;95879.06;4171574;28;20086;-69
2023/12/16 06:58:27;;;;;;;3.10;1.52;;;;;;;3.01;73.08;95871.97;4174311;28;20069;-69
2023/12/16 07:00:30;;;;;;;3.83;1.50;;;;;;;3.08;73.24;95881.09;4163028;28;20042;-70
2023/12/16 07:02:32;;;;;;;2.63;1.50;;;;;;;3.14;73.40;95885.94;4166673;28;20049;-70
2023/12/16 07:04:33;;;;;;;3.92;1.70;;;;;;;3.14;72.93;95887.66;4164026;28;20178;-70
2023/12/16 07:06:36;;;;;;;4.00;1.63;;;;;;;3.10;72.81;95893.91;4172485;28;20077;-70
2023/12/16 07:08:40;;;;;;;6.47;1.70;;;;;;;3.05;73.21;95891.59;4163117;28;20097;-71
2023/12/16 07:10:42;;;;;;;;;;;;;;;3.17;73.49;95900.44;4171038;28;20036;-69
2023/12/16 07:12:44;;;;;;;5.05;1.90;;;;;;;3.23;72.83;95905.28;4175094;28;20345;-69
2023/12/16 07:14:47;;;;;;;3.08;1.73;;;;;;;3.18;72.57;95902.94;4174714;28;20052;-70
2023/12/16 07:16:49;;;;;;;2.10;1.27;;;;;;;3.14;72.20;95913.56;4170098;28;20064;-69
2023/12/16 07:18:55;;;;;;;2.88;1.60;;;;;;;3.17;73.55;95918.56;4151695;28;20452;-71
2023/12/16 07:20:57;;;;;;;7.25;2.08;;;;;;;3.40;74.94;95930.25;4176007;28;20051;-70
2023/12/16 07:22:59;;;;;;;2.75;1.40;;;;;;;3.40;72.95;95922.47;4173359;28;20435;-70
2023/12/16 07:25:01;;;;;;;2.22;1.50;;;;;;;3.23;72.70;95926.84;4170431;28;20534;-70
2023/12/16 07:27:05;;;;;;;3.58;1.58;;;;;;;3.19;72.81;95912.38;4179259;28;20417;-69
2023/12/16 07:29:06;;;;;;;2.80;1.30;;;;;;;3.19;72.92;95909.81;4177742;28;20139;-70
2023/12/16 07:31:08;;;;;;;2.38;1.30;;;;;;;3.28;73.36;95922.22;4166725;28;20045;-71
2023/12/16 07:33:10;;;;;;;2.85;2.00;;;;;;;3.35;72.77;95927.91;4178054;28;20051;-69
2023/12/16 07:35:15;;;;;;;3.35;1.75;;;;;;;3.31;72.38;95930.75;4180180;28;20447;-70
2023/12/16 07:37:18;;;;;;;2.55;1.50;;;;;;;3.26;72.65;95924.06;4178640;28;20055;-70
2023/12/16 07:39:20;;;;;;;2.13;1.52;;;;;;;3.37;72.97;95933.00;4178236;28;20084;-72
2023/12/16 07:41:22;;;;;;;2.92;1.73;;;;;;;3.43;72.85;95936.09;4180511;28;20049;-70
2023/12/16 07:43:24;;;;;;;2.60;1.60;;;;;;;3.53;73.22;95932.97;4179328;28;20135;-69
2023/12/16 07:45:26;;;;;;;4.20;1.40;;;;;;;3.62;72.56;95938.50;4166839;28;20057;-69
2023/12/16 07:47:28;;;;;;;3.25;2.03;;;;;;;3.68;72.19;95938.16;4174771;28;20053;-72
2023/12/16 07:49:30;;;;;;;2.50;1.70;;;;;;;3.85;73.16;95949.31;4171698;28;20049;-69
2023/12/16 07:51:32;;;;;;;2.88;1.77;;;;;;;3.86;72.19;95938.03;4179930;28;20506;-70
2023/12/16 07:53:34;;;;;;;2.60;1.70;;;;;;;3.87;72.18;95939.69;4178924;28;20080;-70
2023/12/16 07:55:35;;;;;;;5.60;2.47;;;;;;;3.90;71.91;95950.72;4178022;28;20437;-71
2023/12/16 07:57:37;;;;;;;3.40;2.25;;;;;;;3.87;72.09;95937.09;4171409;28;20095;-69
2023/12/16 07:59:40;;;;;;;3.70;2.40;;;;;;;3.96;72.84;95944.38;4171988;28;20063;-69
2023/12/16 08:01:49;;;;;;;3.08;1.90;;;;;;;3.90;72.07;95947.31;4175924;28;20069;-70
2023/12/16 08:03:51;;;;;;;4.20;1.90;;;;;;;3.69;71.97;95949.34;4173325;28;20131;-70
2023/12/16 08:05:53;;;;;;;3.10;1.95;;;;;;;3.62;72.55;95961.00;4179406;28;20049;-71
2023/12/16 08:07:55;;;;;;;2.58;1.67;;;;;;;3.67;72.24;95962.38;4176794;28;20115;-71
2023/12/16 08:09:57;;;;;;;3.20;1.73;;;;;;;3.68;73.02;95958.88;4176201;28;20045;-70
2023/12/16 08:11:59;;;;;;;2.90;2.05;;;;;;;3.68;72.69;95964.06;4173539;28;20145;-70
2023/12/16 08:14:01;;;;;;;5.13;2.03;;;;;;;3.69;72.92;95977.84;4172076;28;20045;-71
2023/12/16 08:16:11;;;;;;;3.30;1.95;;;;;;;3.61;72.31;95978.28;4186245;28;20044;-71
2023/12/16 08:18:13;;;;;;;3.03;1.92;;;;;;;3.48;72.01;95977.28;4171626;28;20059;-70
2023/12/16 08:20:17;;;;;;;3.67;1.70;;;;;;;3.38;72.73;95976.97;4178970;28;20131;-71
2023/12/16 08:22:19;;;;;;;2.85;1.90;;;;;;;3.40;72.94;95982.91;4160075;28;20530;-72
2023/12/16 08:24:21;;;;;;;3.08;1.88;;;;;;;3.37;72.51;95983.06;4176623;28;20058;-70
2023/12/16 08:26:22;;;;;;;3.45;1.80;;;;;;;3.45;72.50;95975.72;4176080;28;20098;-70
2023/12/16 08:28:24;;;;;;;3.25;1.77;;;;;;;3.62;72.96;95990.31;4173141;28;20127;-71
2023/12/16 08:30:27;;;;;;;4.95;1.90;;;;;;;3.74;72.75;95993.16;4171315;28;20042;-71
2023/12/16 08:32:28;;;;;;;3.05;2.00;;;;;;;3.68;72.30;95981.38;4173578;28;20050;-72
2023/12/16 08:34:31;;;;;;;2.70;1.85;;;;;;;3.75;71.89;95993.06;4168202;28;20060;-73
2023/12/16 08:36:33;;;;;;;3.47;1.90;;;;;;;3.69;71.16;95983.03;4169942;28;20041;-72
2023/12/16 08:38:35;;;;;;;2.67;1.77;;;;;;;3.57;71.14;95997.53;4170469;28;20488;-72
2023/12/16 08:40:38;;;;;;;2.97;1.63;;;;;;;3.56;71.87;95990.66;4167707;28;20045;-68
2023/12/16 08:42:43;;;;;;;3.80;1.92;;;;;;;3.59;72.19;95984.47;4172929;28;20049;-70
2023/12/16 08:44:45;;;;;;;4.82;2.30;;;;;;;3.65;72.57;95979.78;4176469;28;20128;-71
2023/12/16 08:46:47;;;;;;;4.13;2.20;;;;;;;3.54;71.33;95979.53;4177094;28;20053;-70
2023/12/16 08:48:49;;;;;;;2.83;1.77;;;;;;;3.43;72.15;95987.06;4179368;28;20095;-70
2023/12/16 08:50:51;;;;;;;3.28;1.88;;;;;;;3.40;72.66;95995.00;4178608;28;20463;-72
2023/12/16 08:52:53;;;;;;;3.63;1.70;;;;;;;3.47;72.63;95986.00;4173618;28;20139;-71
2023/12/16 08:54:55;;;;;;;3.10;1.55;;;;;;;3.45;71.93;95993.00;4161525;28;20053;-69
2023/12/16 08:56:56;;;;;;;2.83;1.80;;;;;;;3.56;71.80;95989.84;4172101;28;20068;-67
2023/12/16 08:58:58;;;;;;;2.10;1.30;;;;;;;3.56;71.60;95990.66;4175807;28;20461;-69
2023/12/16 09:01:00;;;;;;;2.35;1.50;;;;;;;3.48;71.40;95985.91;4165564;28;20402;-70
2023/12/16 09:03:02;;;;;;;2.45;1.50;;;;;;;3.53;71.51;95988.25;4178882;28;20060;-70
2023/12/16 09:05:04;;;;;;;3.17;1.95;;;;;;;3.67;72.45;95987.47;4177159;28;20118;-71
2023/12/16 09:07:06;;;;;;;2.33;1.50;;;;;;;3.72;71.87;95976.84;4176458;28;20136;-70
2023/12/16 09:09:08;;;;;;;5.65;1.98;;;;;;;3.80;71.37;95972.91;4169629;28;20108;-70
2023/12/16 09:11:16;;;;;;;3.17;2.05;;;;;;;3.74;71.54;95983.59;4177534;28;20052;-71
2023/12/16 09:13:18;;;;;;;2.72;1.80;;;;;;;3.76;71.29;95978.34;4170709;28;20065;-70
2023/12/16 09:15:20;;;;;;;2.95;1.60;;;;;;;3.78;71.16;95976.50;4175581;28;20318;-70
2023/12/16 09:17:22;;;;;;;2.65;1.75;;;;;;;3.84;71.26;95976.16;4174253;28;20049;-70
2023/12/16 09:19:24;;;;;;;2.70;1.90;;;;;;;3.93;70.77;95978.22;4170053;28;20056;-70
2023/12/16 09:21:26;;;;;;;5.55;1.80;;;;;;;3.94;70.84;95968.72;4174314;28;20080;-69
2023/12/16 09:23:28;;;;;;;3.65;1.77;;;;;;;3.96;70.12;95964.25;4170259;28;20056;-70
2023/12/16 09:25:30;;;;;;;3.55;2.38;;;;;;;4.13;70.94;95969.34;4169084;28;20095;-70
2023/12/16 09:27:32;;;;;;;3.10;2.03;;;;;;;4.16;69.97;95963.13;4166457;28;20099;-71
2023/12/16 09:29:34;;;;;;;3.33;1.73;;;;;;;4.13;69.34;95965.88;4168169;28;20135;-67
2023/12/16 09:31:35;;;;;;;3.30;2.00;;;;;;;4.21;70.21;95956.72;4178638;28;20075;-71
2023/12/16 09:33:37;;;;;;;3.00;2.28;;;;;;;4.14;70.47;95959.78;4174201;28;20506;-72
2023/12/16 09:35:39;;;;;;;5.82;1.95;;;;;;;4.31;70.65;95957.88;4164613;28;20512;-70
2023/12/16 09:37:41;;;;;;;3.97;2.33;;;;;;;4.43;70.76;95961.53;4166940;28;20045;-71
2023/12/16 09:39:44;;;;;;;3.55;2.20;;;;;;;4.43;69.69;95961.53;4167257;28;20441;-70
2023/12/16 09:41:46;;;;;;;6.05;2.42;;;;;;;4.52;69.10;95952.34;4175436;28;20427;-71